Oyster Creek — WDF6802 — position and weather

sailwx.info

Track history (hours):
 
Tides and Currents Weather Stations Pressure Air Temp Water Temp Dewpoint Dewpoint Depression Visibility Wind Speed Wind Dir Waves Ship Positions

Oyster Creek

Owner: Vane Line Bunkering, Inc, Philadelphia, PA. More information available from US FCC via Universal Licensing System and Coast Guard Vessel Documentation Center.

Last reported at 2017-Dec-17 13:22 UTC. Time now 2017-Dec-17 13:53 UTC.
Position N 40°39' W 074°07'.

Length 30 m; draft 4 m.

Type: Tug. MMSI: 367477980.

Date/timePositionNaut miles runAvg speedWind from/ knotsBaromVisibWave heightAir tempDewpointWater temp
2017-Dec-17 13:22N 40°39' W 074°07'0 0.0
2017-Dec-17 12:58N 40°39' W 074°07'0 0.0
2017-Dec-17 12:28N 40°39' W 074°07'0 0.0
2017-Dec-17 11:59N 40°39' W 074°07'1 1.3
2017-Dec-17 11:30N 40°39' W 074°07'2 3.4
2017-Dec-17 11:00N 40°39' W 074°09'2 5.0
2017-Dec-17 10:30N 40°41' W 074°09'0 0.9
2017-Dec-17 10:00N 40°41' W 074°09'0 0.0
2017-Dec-17 09:27N 40°41' W 074°09'0 0.0
2017-Dec-17 08:48N 40°41' W 074°09'0 0.0
2017-Dec-17 08:21N 40°41' W 074°09'0 0.0
2017-Dec-17 07:57N 40°41' W 074°09'0 0.0
2017-Dec-17 07:30N 40°41' W 074°09'1 2.7
2017-Dec-17 07:00N 40°40' W 074°08'0 0.6
2017-Dec-17 06:22N 40°40' W 074°09'0 0.0
2017-Dec-17 05:55N 40°40' W 074°09'0 0.0
2017-Dec-17 05:22N 40°40' W 074°09'0 0.0
2017-Dec-17 04:58N 40°40' W 074°09'0 0.0
2017-Dec-17 04:28N 40°40' W 074°09'0 0.0
2017-Dec-17 04:00N 40°40' W 074°09'2 3.3
2017-Dec-17 03:30N 40°39' W 074°07'0 0.9
2017-Dec-17 03:00N 40°39' W 074°07'1 0.9
2017-Dec-17 02:26N 40°39' W 074°07'0 0.0
2017-Dec-17 01:29N 40°39' W 074°07'0 0.0
2017-Dec-17 00:59N 40°39' W 074°07'0 0.0
2017-Dec-17 00:29N 40°39' W 074°07'0 0.0
2017-Dec-16 23:44N 40°39' W 074°07'0 0.0
2017-Dec-16 23:26N 40°39' W 074°07'0 0.2
2017-Dec-16 23:00N 40°39' W 074°07'4 7.8
2017-Dec-16 22:31N 40°40' W 074°03'1 2.0
2017-Dec-16 22:00N 40°40' W 074°04'1 2.6
2017-Dec-16 21:31N 40°39' W 074°05'1 1.4
2017-Dec-16 20:58N 40°39' W 074°06'0 0.0
2017-Dec-16 20:28N 40°39' W 074°06'0 0.0
2017-Dec-16 19:58N 40°39' W 074°06'0 0.0
2017-Dec-16 19:28N 40°39' W 074°06'0 0.0
2017-Dec-16 18:58N 40°39' W 074°06'1 1.2
2017-Dec-16 18:26N 40°39' W 074°07'0 0.6
2017-Dec-16 18:00N 40°39' W 074°06'2 4.4
2017-Dec-16 17:30N 40°38' W 074°04'2 4.6
2017-Dec-16 17:00N 40°39' W 074°01'1 2.1
2017-Dec-16 16:28N 40°40' W 074°00'0 0.0
2017-Dec-16 15:58N 40°40' W 074°00'0 0.0
2017-Dec-16 15:28N 40°40' W 074°00'0 0.0
2017-Dec-16 14:58N 40°40' W 074°00'0 0.0
2017-Dec-16 14:28N 40°40' W 074°00'0 0.0
2017-Dec-16 13:58N 40°40' W 074°00'0 0.0
2017-Dec-16 13:28N 40°40' W 074°00'0 0.0
2017-Dec-16 12:58N 40°40' W 074°00'1 2.9
2017-Dec-16 12:31N 40°39' W 074°02'2 3.8
2017-Dec-16 12:00N 40°38' W 074°04'0 0.5
2017-Dec-16 11:31N 40°38' W 074°04'0 0.4
2017-Dec-16 11:01N 40°38' W 074°04'0 0.5
2017-Dec-16 10:30N 40°39' W 074°04'3 6.3
2017-Dec-16 10:01N 40°39' W 074°08'2 4.4
2017-Dec-16 09:31N 40°41' W 074°09'1 1.7
2017-Dec-16 09:00N 40°41' W 074°09'0 0.0
2017-Dec-16 08:22N 40°41' W 074°09'0 0.0
2017-Dec-16 07:55N 40°41' W 074°09'0 0.0
2017-Dec-16 07:19N 40°41' W 074°09'0 0.0
2017-Dec-16 06:55N 40°41' W 074°09'0 0.0
2017-Dec-16 06:28N 40°41' W 074°09'0 1.0
2017-Dec-16 05:59N 40°41' W 074°09'0 0.7
2017-Dec-16 05:30N 40°41' W 074°09'2 4.6
2017-Dec-16 05:00N 40°39' W 074°08'1 1.2
2017-Dec-16 04:30N 40°39' W 074°07'0 0.2
2017-Dec-16 02:14N 40°39' W 074°07'2 5.0
2017-Dec-16 01:53N 40°38' W 074°09'1 2.2
2017-Dec-16 01:30N 40°39' W 074°08'1 0.5
2017-Dec-15 23:19N 40°39' W 074°07'0 0.9
2017-Dec-15 22:56N 40°39' W 074°06'2 5.2
2017-Dec-15 22:30N 40°39' W 074°03'1 2.6
2017-Dec-15 22:00N 40°40' W 074°03'2 3.6
2017-Dec-15 21:30N 40°40' W 074°00'0 0.0
2017-Dec-15 21:00N 40°40' W 074°00'0 0.6
2017-Dec-15 20:30N 40°40' W 074°00'0 0.0
2017-Dec-15 20:00N 40°40' W 074°00'3 6.7
2017-Dec-15 19:30N 40°39' W 074°04'2 3.6
2017-Dec-15 19:00N 40°39' W 074°07'0 0.0
2017-Dec-15 18:30N 40°39' W 074°07'0 0.1
2017-Dec-15 18:00N 40°39' W 074°07'1 1.6
2017-Dec-15 17:30N 40°39' W 074°08'1 2.6
2017-Dec-15 16:59N 40°40' W 074°09'2 3.6
2017-Dec-15 16:30N 40°41' W 074°10'0 0.0
2017-Dec-15 15:56N 40°41' W 074°10'0 0.0
2017-Dec-15 15:14N 40°41' W 074°10'0 0.0
2017-Dec-15 14:59N 40°41' W 074°10'0 0.0
2017-Dec-15 13:17N 40°41' W 074°10'0 0.0
2017-Dec-15 12:58N 40°41' W 074°10'1 1.3
2017-Dec-15 12:27N 40°41' W 074°09'0 0.1
2017-Dec-15 12:00N 40°41' W 074°09'1 1.5
2017-Dec-15 11:30N 40°41' W 074°10'2 4.3
2017-Dec-15 11:01N 40°39' W 074°09'2 5.0
2017-Dec-15 10:31N 40°39' W 074°05'3 5.2
2017-Dec-15 10:01N 40°40' W 074°02'2 4.1
2017-Dec-15 09:30N 40°41' W 074°00'0 0.7
2017-Dec-15 09:00N 40°41' W 074°01'3 6.9
2017-Dec-15 08:30N 40°39' W 074°04'3 5.5
2017-Dec-15 08:00N 40°39' W 074°08'1 2.9
2017-Dec-15 07:30N 40°40' W 074°08'1 2.2
2017-Dec-15 07:00N 40°41' W 074°09'0 0.5
2017-Dec-15 06:30N 40°41' W 074°09'2 4.5
2017-Dec-15 06:00N 40°39' W 074°08'1 2.4
2017-Dec-15 05:30N 40°39' W 074°07'1 1.1
2017-Dec-15 04:56N 40°39' W 074°07'0 0.2
2017-Dec-15 04:30N 40°39' W 074°07'2 4.5
2017-Dec-15 04:00N 40°39' W 074°04'3 2.1
2017-Dec-15 02:29N 40°40' W 074°00'0 0.0
2017-Dec-15 01:00N 40°40' W 074°01'0 0.1
2017-Dec-15 00:31N 40°40' W 074°00'7 1.1
2017-Dec-14 18:30N 40°41' W 074°09'0 0.2
2017-Dec-14 18:00N 40°41' W 074°09'0 0.7
2017-Dec-14 17:20N 40°41' W 074°10'0 0.0
2017-Dec-14 16:53N 40°41' W 074°10'0 0.0
2017-Dec-14 16:29N 40°41' W 074°10'0 0.0
2017-Dec-14 15:59N 40°41' W 074°10'0 0.0
2017-Dec-14 14:53N 40°41' W 074°10'0 0.0
2017-Dec-14 14:26N 40°41' W 074°10'0 0.0
2017-Dec-14 13:56N 40°41' W 074°10'0 0.0
2017-Dec-14 13:29N 40°41' W 074°10'1 1.5
2017-Dec-14 12:59N 40°41' W 074°09'0 0.0
2017-Dec-14 12:29N 40°41' W 074°09'1 1.3
2017-Dec-14 11:55N 40°41' W 074°10'0 0.0
2017-Dec-14 11:28N 40°41' W 074°10'0 0.0
2017-Dec-14 10:59N 40°41' W 074°10'0 0.0
2017-Dec-14 10:30N 40°41' W 074°10'1 2.6
2017-Dec-14 10:00N 40°40' W 074°08'2 3.7
2017-Dec-14 09:30N 40°39' W 074°07'1 2.5
2017-Dec-14 09:00N 40°39' W 074°05'0 0.7
2017-Dec-14 08:25N 40°39' W 074°06'0 0.0
2017-Dec-14 07:55N 40°39' W 074°06'0 0.0
2017-Dec-14 07:28N 40°39' W 074°06'0 0.0
2017-Dec-14 06:58N 40°39' W 074°06'0 0.0
2017-Dec-14 06:28N 40°39' W 074°06'0 0.0
2017-Dec-14 05:58N 40°39' W 074°06'0 0.0
2017-Dec-14 05:28N 40°39' W 074°06'0 0.3
2017-Dec-14 05:00N 40°39' W 074°06'1 1.4
2017-Dec-14 04:30N 40°39' W 074°07'1 1.9
2017-Dec-14 04:00N 40°39' W 074°08'1 2.6
2017-Dec-14 03:30N 40°40' W 074°09'0 0.2
2017-Dec-14 03:00N 40°40' W 074°09'0 0.0
2017-Dec-14 02:30N 40°40' W 074°09'0 0.0
2017-Dec-14 02:00N 40°40' W 074°09'0 0.0
2017-Dec-14 01:28N 40°40' W 074°09'0 0.0
2017-Dec-14 00:58N 40°40' W 074°09'0 0.0
2017-Dec-14 00:28N 40°40' W 074°09'0 0.0
2017-Dec-13 23:58N 40°40' W 074°09'0 0.0
2017-Dec-13 23:28N 40°40' W 074°09'0 0.0
2017-Dec-13 22:58N 40°40' W 074°09'0 0.8
2017-Dec-13 22:30N 40°39' W 074°09'3 5.3
2017-Dec-13 21:59N 40°38' W 074°12'0 0.2
2017-Dec-13 21:29N 40°38' W 074°12'3 5.4
2017-Dec-13 21:00N 40°39' W 074°09'2 3.3
2017-Dec-13 20:30N 40°39' W 074°06'0 0.0
2017-Dec-13 19:58N 40°39' W 074°06'0 0.0
2017-Dec-13 19:29N 40°39' W 074°06'1 0.7
2017-Dec-13 18:30N 40°39' W 074°07'0 0.0
2017-Dec-13 17:48N 40°39' W 074°07'1 2.3
2017-Dec-13 17:31N 40°39' W 074°06'1 1.8
2017-Dec-13 17:01N 40°39' W 074°05'1 2.5
2017-Dec-13 16:30N 40°40' W 074°05'0 0.0
2017-Dec-13 16:00N 40°40' W 074°05'0 0.0
2017-Dec-13 15:30N 40°40' W 074°05'2 4.7
2017-Dec-13 15:00N 40°39' W 074°02'2 3.1
2017-Dec-13 14:28N 40°40' W 074°00'0 0.0
2017-Dec-13 13:58N 40°40' W 074°00'0 0.8
2017-Dec-13 13:30N 40°40' W 074°01'3 6.2
2017-Dec-13 13:00N 40°40' W 074°05'0 0.0
2017-Dec-13 12:24N 40°40' W 074°05'0 0.0
2017-Dec-13 12:00N 40°40' W 074°05'0 0.0
2017-Dec-13 11:30N 40°40' W 074°05'0 0.0
2017-Dec-13 11:00N 40°40' W 074°05'0 0.0
2017-Dec-13 10:30N 40°40' W 074°05'1 1.9
2017-Dec-13 10:00N 40°39' W 074°05'0 0.0
2017-Dec-13 09:30N 40°39' W 074°05'0 0.9
2017-Dec-13 09:00N 40°39' W 074°05'1 1.5
2017-Dec-13 08:30N 40°39' W 074°06'1 1.2
2017-Dec-13 08:00N 40°39' W 074°06'2 4.1
2017-Dec-13 07:30N 40°39' W 074°09'1 1.2
2017-Dec-13 07:00N 40°39' W 074°09'3 6.1
2017-Dec-13 06:30N 40°39' W 074°05'3 5.6
2017-Dec-13 06:00N 40°40' W 074°01'1 1.5
2017-Dec-13 05:30N 40°40' W 074°00'0 0.1
2017-Dec-13 05:00N 40°40' W 074°00'0 0.0
2017-Dec-13 04:30N 40°40' W 074°00'0 0.0
2017-Dec-13 04:00N 40°40' W 074°00'0 0.0
2017-Dec-13 03:30N 40°40' W 074°00'0 0.0
2017-Dec-13 03:00N 40°40' W 074°00'0 0.0
2017-Dec-13 02:24N 40°40' W 074°00'0 0.0
2017-Dec-13 02:00N 40°40' W 074°00'0 0.0
2017-Dec-13 01:30N 40°40' W 074°00'0 0.0
2017-Dec-13 01:00N 40°40' W 074°00'0 0.0
2017-Dec-13 00:30N 40°40' W 074°00'0 0.0
2017-Dec-13 00:00N 40°40' W 074°00'0 0.0
2017-Dec-12 23:30N 40°40' W 074°00'0 0.0
2017-Dec-12 23:00N 40°40' W 074°00'0 0.0
2017-Dec-12 22:30N 40°40' W 074°00'0 0.0
2017-Dec-12 22:00N 40°40' W 074°00'2 3.7
2017-Dec-12 21:30N 40°39' W 074°02'5 9.9
2017-Dec-12 21:00N 40°39' W 074°09'3 5.2
2017-Dec-12 20:25N 40°42' W 074°08'0 0.0
2017-Dec-12 19:58N 40°42' W 074°08'0 0.1
2017-Dec-12 19:30N 40°42' W 074°08'1 1.9
2017-Dec-12 19:00N 40°41' W 074°08'2 4.4
2017-Dec-12 18:30N 40°39' W 074°08'4 7.2
2017-Dec-12 18:01N 40°39' W 074°03'4 8.4
2017-Dec-12 17:31N 40°43' W 074°01'3 5.8
2017-Dec-12 16:59N 40°46' W 073°60'0 0.0
2017-Dec-12 16:26N 40°46' W 073°60'0 0.1
2017-Dec-12 15:56N 40°46' W 073°60'0 0.1
2017-Dec-12 15:26N 40°46' W 073°60'0 0.0
2017-Dec-12 14:50N 40°46' W 073°60'0 0.0
2017-Dec-12 14:26N 40°46' W 073°60'0 0.1
2017-Dec-12 13:56N 40°46' W 073°60'0 0.1
2017-Dec-12 13:30N 40°46' W 074°00'1 1.5
2017-Dec-12 13:00N 40°46' W 074°01'3 6.0
2017-Dec-12 12:30N 40°43' W 074°02'3 5.4
2017-Dec-12 12:00N 40°40' W 074°03'2 3.8
2017-Dec-12 11:30N 40°39' W 074°05'1 2.5
2017-Dec-12 11:01N 40°39' W 074°04'3 4.9
2017-Dec-12 10:28N 40°40' W 074°00'0 0.0
2017-Dec-12 09:58N 40°40' W 074°00'0 0.0
2017-Dec-12 09:28N 40°40' W 074°00'0 0.0
2017-Dec-12 08:58N 40°40' W 074°00'0 0.0
2017-Dec-12 08:30N 40°40' W 074°00'0 0.2
2017-Dec-12 08:00N 40°40' W 074°00'3 6.0
2017-Dec-12 07:30N 40°39' W 074°04'0 0.0
2017-Dec-12 06:58N 40°39' W 074°04'0 0.1
2017-Dec-12 06:28N 40°39' W 074°04'0 0.0
2017-Dec-12 05:58N 40°39' W 074°04'0 0.0
2017-Dec-12 05:28N 40°39' W 074°04'0 0.1
2017-Dec-12 04:58N 40°39' W 074°04'0 0.3
2017-Dec-12 04:28N 40°38' W 074°04'0 0.2
2017-Dec-12 03:58N 40°38' W 074°04'0 0.1
2017-Dec-12 03:28N 40°38' W 074°04'0 0.0
2017-Dec-12 02:58N 40°38' W 074°04'0 0.0
2017-Dec-12 02:30N 40°38' W 074°04'1 2.4
2017-Dec-12 02:00N 40°39' W 074°05'1 1.3
2017-Dec-12 01:30N 40°39' W 074°06'0 0.1
2017-Dec-12 00:59N 40°39' W 074°06'0 0.0
2017-Dec-12 00:29N 40°39' W 074°06'0 0.0
2017-Dec-11 23:59N 40°39' W 074°06'0 0.4
2017-Dec-11 23:30N 40°39' W 074°06'3 6.7
2017-Dec-11 23:00N 40°39' W 074°02'1 2.2
2017-Dec-11 22:30N 40°40' W 074°00'0 0.6
2017-Dec-11 22:00N 40°40' W 074°01'3 6.0
2017-Dec-11 21:28N 40°40' W 074°05'1 2.3
2017-Dec-11 21:00N 40°39' W 074°05'1 2.4
2017-Dec-11 20:30N 40°39' W 074°06'2 3.8
2017-Dec-11 20:00N 40°40' W 074°09'1 1.2
2017-Dec-11 19:30N 40°39' W 074°09'2 5.0
2017-Dec-11 19:00N 40°39' W 074°05'4 7.3
2017-Dec-11 18:30N 40°40' W 074°01'1 1.2
2017-Dec-11 18:00N 40°40' W 074°00'0 0.1
2017-Dec-11 17:28N 40°40' W 074°00'0 0.0
2017-Dec-11 16:58N 40°40' W 074°00'0 0.0
2017-Dec-11 16:28N 40°40' W 074°00'0 0.0
2017-Dec-11 15:58N 40°40' W 074°00'0 0.0
2017-Dec-11 15:28N 40°40' W 074°00'2 4.7
2017-Dec-11 15:00N 40°39' W 074°03'3 6.1
2017-Dec-11 14:31N 40°39' W 074°07'2 3.8
2017-Dec-11 14:00N 40°40' W 074°04'1 2.4
2017-Dec-11 13:30N 40°40' W 074°03'0 0.0
2017-Dec-11 13:00N 40°40' W 074°03'0 0.0
2017-Dec-11 12:30N 40°40' W 074°03'1 2.5
2017-Dec-11 12:00N 40°40' W 074°05'0 0.9
2017-Dec-11 11:30N 40°40' W 074°05'0 0.0
2017-Dec-11 10:57N 40°40' W 074°05'0 0.0
2017-Dec-11 10:30N 40°40' W 074°05'0 0.0
2017-Dec-11 10:00N 40°40' W 074°05'0 0.0
2017-Dec-11 09:30N 40°40' W 074°05'0 0.0
2017-Dec-11 09:00N 40°40' W 074°05'0 0.0
2017-Dec-11 08:30N 40°40' W 074°05'0 0.0
2017-Dec-11 08:00N 40°40' W 074°05'0 0.0
2017-Dec-11 07:27N 40°40' W 074°05'0 0.0
2017-Dec-11 07:00N 40°40' W 074°05'0 0.0
2017-Dec-11 06:30N 40°40' W 074°05'0 0.0
2017-Dec-11 06:00N 40°40' W 074°05'0 0.0
2017-Dec-11 05:27N 40°40' W 074°05'0 0.0
2017-Dec-11 05:00N 40°40' W 074°05'0 0.0
2017-Dec-11 04:30N 40°40' W 074°05'0 0.0
2017-Dec-11 04:00N 40°40' W 074°05'0 0.0
2017-Dec-11 03:30N 40°40' W 074°05'0 0.0
2017-Dec-11 03:00N 40°40' W 074°05'0 0.0
2017-Dec-11 02:30N 40°40' W 074°05'1 2.2
2017-Dec-11 02:00N 40°39' W 074°04'1 1.4
2017-Dec-11 01:30N 40°39' W 074°05'3 6.7
2017-Dec-11 01:00N 40°40' W 074°01'1 1.3
2017-Dec-11 00:28N 40°40' W 074°00'0 0.6
2017-Dec-10 23:58N 40°40' W 074°00'2 5.3
2017-Dec-10 23:30N 40°39' W 074°03'5 9.0
2017-Dec-10 23:00N 40°39' W 074°09'3 6.1
2017-Dec-10 22:30N 40°37' W 074°12'2 0.6
2017-Dec-10 20:07N 40°35' W 074°13'0 0.0
2017-Dec-10 19:43N 40°35' W 074°13'0 0.0
2017-Dec-10 19:22N 40°35' W 074°13'0 0.0
2017-Dec-10 18:58N 40°35' W 074°13'0 0.2
2017-Dec-10 18:29N 40°35' W 074°13'2 3.0
2017-Dec-10 17:44N 40°33' W 074°14'0 0.0
2017-Dec-10 16:01N 40°33' W 074°14'0 0.4
2017-Dec-10 16:00N 40°33' W 074°14'2 3.1
2017-Dec-10 15:17N 40°35' W 074°13'1 3.6
2017-Dec-10 14:56N 40°36' W 074°12'1 2.3
2017-Dec-10 14:24N 40°38' W 074°12'0 0.5
2017-Dec-10 14:00N 40°38' W 074°12'0 0.0
2017-Dec-10 13:30N 40°38' W 074°12'0 0.0
2017-Dec-10 13:00N 40°38' W 074°12'0 0.0
2017-Dec-10 12:30N 40°38' W 074°12'0 0.0
2017-Dec-10 11:59N 40°38' W 074°12'0 0.0
2017-Dec-10 11:30N 40°38' W 074°12'0 0.0
2017-Dec-10 11:00N 40°38' W 074°12'0 0.0
2017-Dec-10 10:30N 40°38' W 074°12'0 0.0
2017-Dec-10 10:00N 40°38' W 074°12'0 0.0
2017-Dec-10 09:30N 40°38' W 074°12'0 0.4
2017-Dec-10 08:59N 40°38' W 074°12'0 0.1
2017-Dec-10 07:16N 40°38' W 074°12'0 0.0
2017-Dec-10 06:52N 40°38' W 074°12'0 0.0
2017-Dec-10 06:28N 40°38' W 074°12'0 0.0
2017-Dec-10 05:55N 40°38' W 074°12'0 0.0
2017-Dec-10 05:13N 40°38' W 074°12'0 0.0
2017-Dec-10 04:49N 40°38' W 074°12'0 0.0
2017-Dec-10 04:28N 40°38' W 074°12'0 0.0
2017-Dec-10 03:55N 40°38' W 074°12'0 0.5
2017-Dec-10 03:29N 40°38' W 074°12'0 0.2
2017-Dec-10 02:59N 40°38' W 074°12'3 5.0
2017-Dec-10 02:29N 40°39' W 074°09'0 0.2
2017-Dec-10 02:00N 40°39' W 074°09'4 8.2
2017-Dec-10 01:30N 40°39' W 074°04'3 6.0
2017-Dec-10 01:00N 40°40' W 074°00'0 0.0
2017-Dec-10 00:28N 40°40' W 074°00'0 0.0
2017-Dec-09 23:58N 40°40' W 074°00'0 0.0
2017-Dec-09 23:28N 40°40' W 074°00'0 0.0
2017-Dec-09 22:58N 40°40' W 074°00'0 0.0
2017-Dec-09 22:28N 40°40' W 074°00'0 0.0
2017-Dec-09 21:58N 40°40' W 074°00'0 0.0
2017-Dec-09 21:28N 40°40' W 074°00'0 0.0
2017-Dec-09 20:58N 40°40' W 074°00'0 0.0
2017-Dec-09 20:28N 40°40' W 074°00'0 0.0
2017-Dec-09 19:59N 40°40' W 074°00'2 4.4
2017-Dec-09 19:31N 40°39' W 074°03'1 2.5
2017-Dec-09 19:00N 40°40' W 074°01'0 0.2
2017-Dec-09 18:30N 40°40' W 074°01'0 0.1
2017-Dec-09 18:00N 40°40' W 074°01'1 1.1
2017-Dec-09 17:30N 40°40' W 074°01'0 0.2
2017-Dec-09 17:01N 40°40' W 074°01'2 3.5
2017-Dec-09 16:30N 40°40' W 074°03'2 4.0
2017-Dec-09 16:00N 40°39' W 074°05'3 5.8
2017-Dec-09 15:30N 40°39' W 074°09'2 4.8
2017-Dec-09 15:00N 40°42' W 074°08'0 0.0
2017-Dec-09 14:29N 40°42' W 074°08'0 0.0
2017-Dec-09 13:59N 40°42' W 074°08'0 0.0
2017-Dec-09 13:29N 40°42' W 074°08'0 0.0
2017-Dec-09 12:59N 40°42' W 074°08'0 0.0
2017-Dec-09 12:30N 40°42' W 074°08'1 1.9
2017-Dec-09 11:59N 40°41' W 074°09'0 0.5
2017-Dec-09 11:25N 40°40' W 074°08'0 0.0
2017-Dec-09 10:58N 40°40' W 074°08'0 0.0
2017-Dec-09 10:25N 40°40' W 074°08'0 0.0
2017-Dec-09 09:58N 40°40' W 074°08'0 0.0
2017-Dec-09 09:28N 40°40' W 074°08'0 0.0
2017-Dec-09 08:58N 40°40' W 074°08'0 0.0
2017-Dec-09 08:30N 40°40' W 074°08'0 0.6
2017-Dec-09 08:00N 40°41' W 074°09'0 0.3
2017-Dec-09 07:30N 40°41' W 074°08'1 1.1
2017-Dec-09 07:00N 40°40' W 074°08'2 3.2
2017-Dec-09 06:30N 40°39' W 074°09'2 3.9
2017-Dec-09 06:00N 40°39' W 074°06'2 3.1
2017-Dec-09 05:30N 40°40' W 074°05'0 0.0
2017-Dec-09 04:59N 40°40' W 074°05'0 0.0
2017-Dec-09 04:29N 40°40' W 074°05'0 0.0
2017-Dec-09 03:59N 40°40' W 074°05'0 0.0
2017-Dec-09 03:29N 40°40' W 074°05'0 0.0
2017-Dec-09 02:59N 40°40' W 074°05'2 3.5
2017-Dec-09 02:31N 40°40' W 074°03'5 9.8
2017-Dec-09 02:01N 40°45' W 074°01'3 5.7
2017-Dec-09 01:29N 40°47' W 073°59'0 0.0
2017-Dec-09 00:59N 40°47' W 073°59'0 0.0
2017-Dec-09 00:26N 40°47' W 073°59'0 0.0
2017-Dec-08 23:59N 40°47' W 073°59'0 0.0
2017-Dec-08 23:29N 40°48' W 073°59'0 0.0
2017-Dec-08 22:56N 40°47' W 073°59'0 0.0
2017-Dec-08 22:23N 40°47' W 073°59'0 0.0
2017-Dec-08 21:56N 40°48' W 073°59'0 0.2
2017-Dec-08 21:29N 40°48' W 073°59'0 0.2
2017-Dec-08 20:56N 40°48' W 073°59'0 0.2
2017-Dec-08 20:29N 40°48' W 073°59'0 0.0
2017-Dec-08 19:59N 40°48' W 073°59'0 0.0
2017-Dec-08 19:29N 40°48' W 073°59'0 0.0
2017-Dec-08 18:59N 40°48' W 073°59'0 0.0
2017-Dec-08 18:29N 40°48' W 073°59'0 0.1
2017-Dec-08 18:01N 40°48' W 073°59'3 5.4
2017-Dec-08 17:31N 40°45' W 074°01'510.6
2017-Dec-08 17:00N 40°40' W 074°03'4 8.1
2017-Dec-08 16:31N 40°39' W 074°08'4 7.1
2017-Dec-08 16:00N 40°37' W 074°12'1 1.9
2017-Dec-08 15:22N 40°36' W 074°12'3 7.3
2017-Dec-08 15:00N 40°39' W 074°11'5 9.8
2017-Dec-08 14:30N 40°39' W 074°05'2 3.5
2017-Dec-08 14:01N 40°40' W 074°03'0 0.0
2017-Dec-08 13:29N 40°40' W 074°03'0 0.0
2017-Dec-08 12:59N 40°40' W 074°03'0 0.0
2017-Dec-08 12:29N 40°40' W 074°03'0 0.1
2017-Dec-08 12:00N 40°40' W 074°03'3 5.0
2017-Dec-08 11:30N 40°38' W 074°04'0 0.0
2017-Dec-08 11:00N 40°38' W 074°04'0 0.0
2017-Dec-08 10:30N 40°38' W 074°04'0 0.0
2017-Dec-08 10:00N 40°38' W 074°04'0 0.0
2017-Dec-08 09:30N 40°38' W 074°04'0 0.0
2017-Dec-08 09:00N 40°38' W 074°04'0 0.1
2017-Dec-08 08:30N 40°38' W 074°04'0 0.0
2017-Dec-08 08:00N 40°38' W 074°04'0 0.0
2017-Dec-08 07:30N 40°38' W 074°04'0 0.0
2017-Dec-08 07:00N 40°38' W 074°04'0 0.3
2017-Dec-08 06:30N 40°38' W 074°04'0 0.3
2017-Dec-08 06:00N 40°38' W 074°04'1 1.4
2017-Dec-08 05:30N 40°39' W 074°04'2 3.9
2017-Dec-08 05:00N 40°39' W 074°06'0 0.1
2017-Dec-08 04:30N 40°39' W 074°06'0 0.0
2017-Dec-08 04:00N 40°39' W 074°06'0 0.0
2017-Dec-08 03:30N 40°39' W 074°06'2 3.8
2017-Dec-08 03:00N 40°40' W 074°04'0 0.4
2017-Dec-08 02:28N 40°40' W 074°04'0 0.0
2017-Dec-08 01:58N 40°40' W 074°04'0 0.0
2017-Dec-08 01:28N 40°40' W 074°04'0 0.0
2017-Dec-08 00:58N 40°40' W 074°04'0 0.0
2017-Dec-08 00:28N 40°40' W 074°04'0 0.0
2017-Dec-07 23:58N 40°40' W 074°04'1 3.1
2017-Dec-07 23:30N 40°39' W 074°06'1 1.0
2017-Dec-07 23:01N 40°39' W 074°06'3 5.7
2017-Dec-07 22:31N 40°40' W 074°03'0 0.7
2017-Dec-07 22:01N 40°41' W 074°03'2 3.8
2017-Dec-07 21:30N 40°40' W 074°00'0 0.0
2017-Dec-07 21:00N 40°40' W 074°00'0 0.0
2017-Dec-07 20:27N 40°40' W 074°00'0 0.0
2017-Dec-07 20:00N 40°40' W 074°00'0 0.0
2017-Dec-07 19:30N 40°40' W 074°00'0 0.0
2017-Dec-07 19:00N 40°40' W 074°00'0 0.0
2017-Dec-07 18:30N 40°40' W 074°00'0 0.0
2017-Dec-07 18:00N 40°40' W 074°00'0 0.0
2017-Dec-07 17:30N 40°40' W 074°00'0 0.0
2017-Dec-07 17:00N 40°40' W 074°00'0 0.0
2017-Dec-07 16:30N 40°40' W 074°00'0 0.0
2017-Dec-07 16:00N 40°40' W 074°00'0 0.0
2017-Dec-07 15:30N 40°40' W 074°00'1 1.2
2017-Dec-07 15:01N 40°40' W 074°01'0 0.2
2017-Dec-07 14:30N 40°40' W 074°01'1 1.2
2017-Dec-07 13:58N 40°40' W 074°00'0 0.0
2017-Dec-07 13:28N 40°40' W 074°00'  
Track history (hours):
 
Tides and Currents Weather Stations Pressure Air Temp Water Temp Dewpoint Dewpoint Depression Visibility Wind Speed Wind Dir Waves Ship Positions

Oyster Creek

Owner: Vane Line Bunkering, Inc, Philadelphia, PA. More information available from US FCC via Universal Licensing System and Coast Guard Vessel Documentation Center.

Last reported at 2017-Dec-17 13:22 UTC. Time now 2017-Dec-17 13:53 UTC.
Position N 40°39' W 074°07'.

Length 30 m; draft 4 m.

Type: Tug. MMSI: 367477980.

Date/timePositionNaut miles runAvg speedWind from/ knotsBaromVisibWave heightAir tempDewpointWater temp
2017-Dec-17 13:22N 40°39' W 074°07'0 0.0
2017-Dec-17 12:58N 40°39' W 074°07'0 0.0
2017-Dec-17 12:28N 40°39' W 074°07'0 0.0
2017-Dec-17 11:59N 40°39' W 074°07'1 1.3
2017-Dec-17 11:30N 40°39' W 074°07'2 3.4
2017-Dec-17 11:00N 40°39' W 074°09'2 5.0
2017-Dec-17 10:30N 40°41' W 074°09'0 0.9
2017-Dec-17 10:00N 40°41' W 074°09'0 0.0
2017-Dec-17 09:27N 40°41' W 074°09'0 0.0
2017-Dec-17 08:48N 40°41' W 074°09'0 0.0
2017-Dec-17 08:21N 40°41' W 074°09'0 0.0
2017-Dec-17 07:57N 40°41' W 074°09'0 0.0
2017-Dec-17 07:30N 40°41' W 074°09'1 2.7
2017-Dec-17 07:00N 40°40' W 074°08'0 0.6
2017-Dec-17 06:22N 40°40' W 074°09'0 0.0
2017-Dec-17 05:55N 40°40' W 074°09'0 0.0
2017-Dec-17 05:22N 40°40' W 074°09'0 0.0
2017-Dec-17 04:58N 40°40' W 074°09'0 0.0
2017-Dec-17 04:28N 40°40' W 074°09'0 0.0
2017-Dec-17 04:00N 40°40' W 074°09'2 3.3
2017-Dec-17 03:30N 40°39' W 074°07'0 0.9
2017-Dec-17 03:00N 40°39' W 074°07'1 0.9
2017-Dec-17 02:26N 40°39' W 074°07'0 0.0
2017-Dec-17 01:29N 40°39' W 074°07'0 0.0
2017-Dec-17 00:59N 40°39' W 074°07'0 0.0
2017-Dec-17 00:29N 40°39' W 074°07'0 0.0
2017-Dec-16 23:44N 40°39' W 074°07'0 0.0
2017-Dec-16 23:26N 40°39' W 074°07'0 0.2
2017-Dec-16 23:00N 40°39' W 074°07'4 7.8
2017-Dec-16 22:31N 40°40' W 074°03'1 2.0
2017-Dec-16 22:00N 40°40' W 074°04'1 2.6
2017-Dec-16 21:31N 40°39' W 074°05'1 1.4
2017-Dec-16 20:58N 40°39' W 074°06'0 0.0
2017-Dec-16 20:28N 40°39' W 074°06'0 0.0
2017-Dec-16 19:58N 40°39' W 074°06'0 0.0
2017-Dec-16 19:28N 40°39' W 074°06'0 0.0
2017-Dec-16 18:58N 40°39' W 074°06'1 1.2
2017-Dec-16 18:26N 40°39' W 074°07'0 0.6
2017-Dec-16 18:00N 40°39' W 074°06'2 4.4
2017-Dec-16 17:30N 40°38' W 074°04'2 4.6
2017-Dec-16 17:00N 40°39' W 074°01'1 2.1
2017-Dec-16 16:28N 40°40' W 074°00'0 0.0
2017-Dec-16 15:58N 40°40' W 074°00'0 0.0
2017-Dec-16 15:28N 40°40' W 074°00'0 0.0
2017-Dec-16 14:58N 40°40' W 074°00'0 0.0
2017-Dec-16 14:28N 40°40' W 074°00'0 0.0
2017-Dec-16 13:58N 40°40' W 074°00'0 0.0
2017-Dec-16 13:28N 40°40' W 074°00'0 0.0
2017-Dec-16 12:58N 40°40' W 074°00'1 2.9
2017-Dec-16 12:31N 40°39' W 074°02'2 3.8
2017-Dec-16 12:00N 40°38' W 074°04'0 0.5
2017-Dec-16 11:31N 40°38' W 074°04'0 0.4
2017-Dec-16 11:01N 40°38' W 074°04'0 0.5
2017-Dec-16 10:30N 40°39' W 074°04'3 6.3
2017-Dec-16 10:01N 40°39' W 074°08'2 4.4
2017-Dec-16 09:31N 40°41' W 074°09'1 1.7
2017-Dec-16 09:00N 40°41' W 074°09'0 0.0
2017-Dec-16 08:22N 40°41' W 074°09'0 0.0
2017-Dec-16 07:55N 40°41' W 074°09'0 0.0
2017-Dec-16 07:19N 40°41' W 074°09'0 0.0
2017-Dec-16 06:55N 40°41' W 074°09'0 0.0
2017-Dec-16 06:28N 40°41' W 074°09'0 1.0
2017-Dec-16 05:59N 40°41' W 074°09'0 0.7
2017-Dec-16 05:30N 40°41' W 074°09'2 4.6
2017-Dec-16 05:00N 40°39' W 074°08'1 1.2
2017-Dec-16 04:30N 40°39' W 074°07'0 0.2
2017-Dec-16 02:14N 40°39' W 074°07'2 5.0
2017-Dec-16 01:53N 40°38' W 074°09'1 2.2
2017-Dec-16 01:30N 40°39' W 074°08'1 0.5
2017-Dec-15 23:19N 40°39' W 074°07'0 0.9
2017-Dec-15 22:56N 40°39' W 074°06'2 5.2
2017-Dec-15 22:30N 40°39' W 074°03'1 2.6
2017-Dec-15 22:00N 40°40' W 074°03'2 3.6
2017-Dec-15 21:30N 40°40' W 074°00'0 0.0
2017-Dec-15 21:00N 40°40' W 074°00'0 0.6
2017-Dec-15 20:30N 40°40' W 074°00'0 0.0
2017-Dec-15 20:00N 40°40' W 074°00'3 6.7
2017-Dec-15 19:30N 40°39' W 074°04'2 3.6
2017-Dec-15 19:00N 40°39' W 074°07'0 0.0
2017-Dec-15 18:30N 40°39' W 074°07'0 0.1
2017-Dec-15 18:00N 40°39' W 074°07'1 1.6
2017-Dec-15 17:30N 40°39' W 074°08'1 2.6
2017-Dec-15 16:59N 40°40' W 074°09'2 3.6
2017-Dec-15 16:30N 40°41' W 074°10'0 0.0
2017-Dec-15 15:56N 40°41' W 074°10'0 0.0
2017-Dec-15 15:14N 40°41' W 074°10'0 0.0
2017-Dec-15 14:59N 40°41' W 074°10'0 0.0
2017-Dec-15 13:17N 40°41' W 074°10'0 0.0
2017-Dec-15 12:58N 40°41' W 074°10'1 1.3
2017-Dec-15 12:27N 40°41' W 074°09'0 0.1
2017-Dec-15 12:00N 40°41' W 074°09'1 1.5
2017-Dec-15 11:30N 40°41' W 074°10'2 4.3
2017-Dec-15 11:01N 40°39' W 074°09'2 5.0
2017-Dec-15 10:31N 40°39' W 074°05'3 5.2
2017-Dec-15 10:01N 40°40' W 074°02'2 4.1
2017-Dec-15 09:30N 40°41' W 074°00'0 0.7
2017-Dec-15 09:00N 40°41' W 074°01'3 6.9
2017-Dec-15 08:30N 40°39' W 074°04'3 5.5
2017-Dec-15 08:00N 40°39' W 074°08'1 2.9
2017-Dec-15 07:30N 40°40' W 074°08'1 2.2
2017-Dec-15 07:00N 40°41' W 074°09'0 0.5
2017-Dec-15 06:30N 40°41' W 074°09'2 4.5
2017-Dec-15 06:00N 40°39' W 074°08'1 2.4
2017-Dec-15 05:30N 40°39' W 074°07'1 1.1
2017-Dec-15 04:56N 40°39' W 074°07'0 0.2
2017-Dec-15 04:30N 40°39' W 074°07'2 4.5
2017-Dec-15 04:00N 40°39' W 074°04'3 2.1
2017-Dec-15 02:29N 40°40' W 074°00'0 0.0
2017-Dec-15 01:00N 40°40' W 074°01'0 0.1
2017-Dec-15 00:31N 40°40' W 074°00'7 1.1
2017-Dec-14 18:30N 40°41' W 074°09'0 0.2
2017-Dec-14 18:00N 40°41' W 074°09'0 0.7
2017-Dec-14 17:20N 40°41' W 074°10'0 0.0
2017-Dec-14 16:53N 40°41' W 074°10'0 0.0
2017-Dec-14 16:29N 40°41' W 074°10'0 0.0
2017-Dec-14 15:59N 40°41' W 074°10'0 0.0
2017-Dec-14 14:53N 40°41' W 074°10'0 0.0
2017-Dec-14 14:26N 40°41' W 074°10'0 0.0
2017-Dec-14 13:56N 40°41' W 074°10'0 0.0
2017-Dec-14 13:29N 40°41' W 074°10'1 1.5
2017-Dec-14 12:59N 40°41' W 074°09'0 0.0
2017-Dec-14 12:29N 40°41' W 074°09'1 1.3
2017-Dec-14 11:55N 40°41' W 074°10'0 0.0
2017-Dec-14 11:28N 40°41' W 074°10'0 0.0
2017-Dec-14 10:59N 40°41' W 074°10'0 0.0
2017-Dec-14 10:30N 40°41' W 074°10'1 2.6
2017-Dec-14 10:00N 40°40' W 074°08'2 3.7
2017-Dec-14 09:30N 40°39' W 074°07'1 2.5
2017-Dec-14 09:00N 40°39' W 074°05'0 0.7
2017-Dec-14 08:25N 40°39' W 074°06'0 0.0
2017-Dec-14 07:55N 40°39' W 074°06'0 0.0
2017-Dec-14 07:28N 40°39' W 074°06'0 0.0
2017-Dec-14 06:58N 40°39' W 074°06'0 0.0
2017-Dec-14 06:28N 40°39' W 074°06'0 0.0
2017-Dec-14 05:58N 40°39' W 074°06'0 0.0
2017-Dec-14 05:28N 40°39' W 074°06'0 0.3
2017-Dec-14 05:00N 40°39' W 074°06'1 1.4
2017-Dec-14 04:30N 40°39' W 074°07'1 1.9
2017-Dec-14 04:00N 40°39' W 074°08'1 2.6
2017-Dec-14 03:30N 40°40' W 074°09'0 0.2
2017-Dec-14 03:00N 40°40' W 074°09'0 0.0
2017-Dec-14 02:30N 40°40' W 074°09'0 0.0
2017-Dec-14 02:00N 40°40' W 074°09'0 0.0
2017-Dec-14 01:28N 40°40' W 074°09'0 0.0
2017-Dec-14 00:58N 40°40' W 074°09'0 0.0
2017-Dec-14 00:28N 40°40' W 074°09'0 0.0
2017-Dec-13 23:58N 40°40' W 074°09'0 0.0
2017-Dec-13 23:28N 40°40' W 074°09'0 0.0
2017-Dec-13 22:58N 40°40' W 074°09'0 0.8
2017-Dec-13 22:30N 40°39' W 074°09'3 5.3
2017-Dec-13 21:59N 40°38' W 074°12'0 0.2
2017-Dec-13 21:29N 40°38' W 074°12'3 5.4
2017-Dec-13 21:00N 40°39' W 074°09'2 3.3
2017-Dec-13 20:30N 40°39' W 074°06'0 0.0
2017-Dec-13 19:58N 40°39' W 074°06'0 0.0
2017-Dec-13 19:29N 40°39' W 074°06'1 0.7
2017-Dec-13 18:30N 40°39' W 074°07'0 0.0
2017-Dec-13 17:48N 40°39' W 074°07'1 2.3
2017-Dec-13 17:31N 40°39' W 074°06'1 1.8
2017-Dec-13 17:01N 40°39' W 074°05'1 2.5
2017-Dec-13 16:30N 40°40' W 074°05'0 0.0
2017-Dec-13 16:00N 40°40' W 074°05'0 0.0
2017-Dec-13 15:30N 40°40' W 074°05'2 4.7
2017-Dec-13 15:00N 40°39' W 074°02'2 3.1
2017-Dec-13 14:28N 40°40' W 074°00'0 0.0
2017-Dec-13 13:58N 40°40' W 074°00'0 0.8
2017-Dec-13 13:30N 40°40' W 074°01'3 6.2
2017-Dec-13 13:00N 40°40' W 074°05'0 0.0
2017-Dec-13 12:24N 40°40' W 074°05'0 0.0
2017-Dec-13 12:00N 40°40' W 074°05'0 0.0
2017-Dec-13 11:30N 40°40' W 074°05'0 0.0
2017-Dec-13 11:00N 40°40' W 074°05'0 0.0
2017-Dec-13 10:30N 40°40' W 074°05'1 1.9
2017-Dec-13 10:00N 40°39' W 074°05'0 0.0
2017-Dec-13 09:30N 40°39' W 074°05'0 0.9
2017-Dec-13 09:00N 40°39' W 074°05'1 1.5
2017-Dec-13 08:30N 40°39' W 074°06'1 1.2
2017-Dec-13 08:00N 40°39' W 074°06'2 4.1
2017-Dec-13 07:30N 40°39' W 074°09'1 1.2
2017-Dec-13 07:00N 40°39' W 074°09'3 6.1
2017-Dec-13 06:30N 40°39' W 074°05'3 5.6
2017-Dec-13 06:00N 40°40' W 074°01'1 1.5
2017-Dec-13 05:30N 40°40' W 074°00'0 0.1
2017-Dec-13 05:00N 40°40' W 074°00'0 0.0
2017-Dec-13 04:30N 40°40' W 074°00'0 0.0
2017-Dec-13 04:00N 40°40' W 074°00'0 0.0
2017-Dec-13 03:30N 40°40' W 074°00'0 0.0
2017-Dec-13 03:00N 40°40' W 074°00'0 0.0
2017-Dec-13 02:24N 40°40' W 074°00'0 0.0
2017-Dec-13 02:00N 40°40' W 074°00'0 0.0
2017-Dec-13 01:30N 40°40' W 074°00'0 0.0
2017-Dec-13 01:00N 40°40' W 074°00'0 0.0
2017-Dec-13 00:30N 40°40' W 074°00'0 0.0
2017-Dec-13 00:00N 40°40' W 074°00'0 0.0
2017-Dec-12 23:30N 40°40' W 074°00'0 0.0
2017-Dec-12 23:00N 40°40' W 074°00'0 0.0
2017-Dec-12 22:30N 40°40' W 074°00'0 0.0
2017-Dec-12 22:00N 40°40' W 074°00'2 3.7
2017-Dec-12 21:30N 40°39' W 074°02'5 9.9
2017-Dec-12 21:00N 40°39' W 074°09'3 5.2
2017-Dec-12 20:25N 40°42' W 074°08'0 0.0
2017-Dec-12 19:58N 40°42' W 074°08'0 0.1
2017-Dec-12 19:30N 40°42' W 074°08'1 1.9
2017-Dec-12 19:00N 40°41' W 074°08'2 4.4
2017-Dec-12 18:30N 40°39' W 074°08'4 7.2
2017-Dec-12 18:01N 40°39' W 074°03'4 8.4
2017-Dec-12 17:31N 40°43' W 074°01'3 5.8
2017-Dec-12 16:59N 40°46' W 073°60'0 0.0
2017-Dec-12 16:26N 40°46' W 073°60'0 0.1
2017-Dec-12 15:56N 40°46' W 073°60'0 0.1
2017-Dec-12 15:26N 40°46' W 073°60'0 0.0
2017-Dec-12 14:50N 40°46' W 073°60'0 0.0
2017-Dec-12 14:26N 40°46' W 073°60'0 0.1
2017-Dec-12 13:56N 40°46' W 073°60'0 0.1
2017-Dec-12 13:30N 40°46' W 074°00'1 1.5
2017-Dec-12 13:00N 40°46' W 074°01'3 6.0
2017-Dec-12 12:30N 40°43' W 074°02'3 5.4
2017-Dec-12 12:00N 40°40' W 074°03'2 3.8
2017-Dec-12 11:30N 40°39' W 074°05'1 2.5
2017-Dec-12 11:01N 40°39' W 074°04'3 4.9
2017-Dec-12 10:28N 40°40' W 074°00'0 0.0
2017-Dec-12 09:58N 40°40' W 074°00'0 0.0
2017-Dec-12 09:28N 40°40' W 074°00'0 0.0
2017-Dec-12 08:58N 40°40' W 074°00'0 0.0
2017-Dec-12 08:30N 40°40' W 074°00'0 0.2
2017-Dec-12 08:00N 40°40' W 074°00'3 6.0
2017-Dec-12 07:30N 40°39' W 074°04'0 0.0
2017-Dec-12 06:58N 40°39' W 074°04'0 0.1
2017-Dec-12 06:28N 40°39' W 074°04'0 0.0
2017-Dec-12 05:58N 40°39' W 074°04'0 0.0
2017-Dec-12 05:28N 40°39' W 074°04'0 0.1
2017-Dec-12 04:58N 40°39' W 074°04'0 0.3
2017-Dec-12 04:28N 40°38' W 074°04'0 0.2
2017-Dec-12 03:58N 40°38' W 074°04'0 0.1
2017-Dec-12 03:28N 40°38' W 074°04'0 0.0
2017-Dec-12 02:58N 40°38' W 074°04'0 0.0
2017-Dec-12 02:30N 40°38' W 074°04'1 2.4
2017-Dec-12 02:00N 40°39' W 074°05'1 1.3
2017-Dec-12 01:30N 40°39' W 074°06'0 0.1
2017-Dec-12 00:59N 40°39' W 074°06'0 0.0
2017-Dec-12 00:29N 40°39' W 074°06'0 0.0
2017-Dec-11 23:59N 40°39' W 074°06'0 0.4
2017-Dec-11 23:30N 40°39' W 074°06'3 6.7
2017-Dec-11 23:00N 40°39' W 074°02'1 2.2
2017-Dec-11 22:30N 40°40' W 074°00'0 0.6
2017-Dec-11 22:00N 40°40' W 074°01'3 6.0
2017-Dec-11 21:28N 40°40' W 074°05'1 2.3
2017-Dec-11 21:00N 40°39' W 074°05'1 2.4
2017-Dec-11 20:30N 40°39' W 074°06'2 3.8
2017-Dec-11 20:00N 40°40' W 074°09'1 1.2
2017-Dec-11 19:30N 40°39' W 074°09'2 5.0
2017-Dec-11 19:00N 40°39' W 074°05'4 7.3
2017-Dec-11 18:30N 40°40' W 074°01'1 1.2
2017-Dec-11 18:00N 40°40' W 074°00'0 0.1
2017-Dec-11 17:28N 40°40' W 074°00'0 0.0
2017-Dec-11 16:58N 40°40' W 074°00'0 0.0
2017-Dec-11 16:28N 40°40' W 074°00'0 0.0
2017-Dec-11 15:58N 40°40' W 074°00'0 0.0
2017-Dec-11 15:28N 40°40' W 074°00'2 4.7
2017-Dec-11 15:00N 40°39' W 074°03'3 6.1
2017-Dec-11 14:31N 40°39' W 074°07'2 3.8
2017-Dec-11 14:00N 40°40' W 074°04'1 2.4
2017-Dec-11 13:30N 40°40' W 074°03'0 0.0
2017-Dec-11 13:00N 40°40' W 074°03'0 0.0
2017-Dec-11 12:30N 40°40' W 074°03'1 2.5
2017-Dec-11 12:00N 40°40' W 074°05'0 0.9
2017-Dec-11 11:30N 40°40' W 074°05'0 0.0
2017-Dec-11 10:57N 40°40' W 074°05'0 0.0
2017-Dec-11 10:30N 40°40' W 074°05'0 0.0
2017-Dec-11 10:00N 40°40' W 074°05'0 0.0
2017-Dec-11 09:30N 40°40' W 074°05'0 0.0
2017-Dec-11 09:00N 40°40' W 074°05'0 0.0
2017-Dec-11 08:30N 40°40' W 074°05'0 0.0
2017-Dec-11 08:00N 40°40' W 074°05'0 0.0
2017-Dec-11 07:27N 40°40' W 074°05'0 0.0
2017-Dec-11 07:00N 40°40' W 074°05'0 0.0
2017-Dec-11 06:30N 40°40' W 074°05'0 0.0
2017-Dec-11 06:00N 40°40' W 074°05'0 0.0
2017-Dec-11 05:27N 40°40' W 074°05'0 0.0
2017-Dec-11 05:00N 40°40' W 074°05'0 0.0
2017-Dec-11 04:30N 40°40' W 074°05'0 0.0
2017-Dec-11 04:00N 40°40' W 074°05'0 0.0
2017-Dec-11 03:30N 40°40' W 074°05'0 0.0
2017-Dec-11 03:00N 40°40' W 074°05'0 0.0
2017-Dec-11 02:30N 40°40' W 074°05'1 2.2
2017-Dec-11 02:00N 40°39' W 074°04'1 1.4
2017-Dec-11 01:30N 40°39' W 074°05'3 6.7
2017-Dec-11 01:00N 40°40' W 074°01'1 1.3
2017-Dec-11 00:28N 40°40' W 074°00'0 0.6
2017-Dec-10 23:58N 40°40' W 074°00'2 5.3
2017-Dec-10 23:30N 40°39' W 074°03'5 9.0
2017-Dec-10 23:00N 40°39' W 074°09'3 6.1
2017-Dec-10 22:30N 40°37' W 074°12'2 0.6
2017-Dec-10 20:07N 40°35' W 074°13'0 0.0
2017-Dec-10 19:43N 40°35' W 074°13'0 0.0
2017-Dec-10 19:22N 40°35' W 074°13'0 0.0
2017-Dec-10 18:58N 40°35' W 074°13'0 0.2
2017-Dec-10 18:29N 40°35' W 074°13'2 3.0
2017-Dec-10 17:44N 40°33' W 074°14'0 0.0
2017-Dec-10 16:01N 40°33' W 074°14'0 0.4
2017-Dec-10 16:00N 40°33' W 074°14'2 3.1
2017-Dec-10 15:17N 40°35' W 074°13'1 3.6
2017-Dec-10 14:56N 40°36' W 074°12'1 2.3
2017-Dec-10 14:24N 40°38' W 074°12'0 0.5
2017-Dec-10 14:00N 40°38' W 074°12'0 0.0
2017-Dec-10 13:30N 40°38' W 074°12'0 0.0
2017-Dec-10 13:00N 40°38' W 074°12'0 0.0
2017-Dec-10 12:30N 40°38' W 074°12'0 0.0
2017-Dec-10 11:59N 40°38' W 074°12'0 0.0
2017-Dec-10 11:30N 40°38' W 074°12'0 0.0
2017-Dec-10 11:00N 40°38' W 074°12'0 0.0
2017-Dec-10 10:30N 40°38' W 074°12'0 0.0
2017-Dec-10 10:00N 40°38' W 074°12'0 0.0
2017-Dec-10 09:30N 40°38' W 074°12'0 0.4
2017-Dec-10 08:59N 40°38' W 074°12'0 0.1
2017-Dec-10 07:16N 40°38' W 074°12'0 0.0
2017-Dec-10 06:52N 40°38' W 074°12'0 0.0
2017-Dec-10 06:28N 40°38' W 074°12'0 0.0
2017-Dec-10 05:55N 40°38' W 074°12'0 0.0
2017-Dec-10 05:13N 40°38' W 074°12'0 0.0
2017-Dec-10 04:49N 40°38' W 074°12'0 0.0
2017-Dec-10 04:28N 40°38' W 074°12'0 0.0
2017-Dec-10 03:55N 40°38' W 074°12'0 0.5
2017-Dec-10 03:29N 40°38' W 074°12'0 0.2
2017-Dec-10 02:59N 40°38' W 074°12'3 5.0
2017-Dec-10 02:29N 40°39' W 074°09'0 0.2
2017-Dec-10 02:00N 40°39' W 074°09'4 8.2
2017-Dec-10 01:30N 40°39' W 074°04'3 6.0
2017-Dec-10 01:00N 40°40' W 074°00'0 0.0
2017-Dec-10 00:28N 40°40' W 074°00'0 0.0
2017-Dec-09 23:58N 40°40' W 074°00'0 0.0
2017-Dec-09 23:28N 40°40' W 074°00'0 0.0
2017-Dec-09 22:58N 40°40' W 074°00'0 0.0
2017-Dec-09 22:28N 40°40' W 074°00'0 0.0
2017-Dec-09 21:58N 40°40' W 074°00'0 0.0
2017-Dec-09 21:28N 40°40' W 074°00'0 0.0
2017-Dec-09 20:58N 40°40' W 074°00'0 0.0
2017-Dec-09 20:28N 40°40' W 074°00'0 0.0
2017-Dec-09 19:59N 40°40' W 074°00'2 4.4
2017-Dec-09 19:31N 40°39' W 074°03'1 2.5
2017-Dec-09 19:00N 40°40' W 074°01'0 0.2
2017-Dec-09 18:30N 40°40' W 074°01'0 0.1
2017-Dec-09 18:00N 40°40' W 074°01'1 1.1
2017-Dec-09 17:30N 40°40' W 074°01'0 0.2
2017-Dec-09 17:01N 40°40' W 074°01'2 3.5
2017-Dec-09 16:30N 40°40' W 074°03'2 4.0
2017-Dec-09 16:00N 40°39' W 074°05'3 5.8
2017-Dec-09 15:30N 40°39' W 074°09'2 4.8
2017-Dec-09 15:00N 40°42' W 074°08'0 0.0
2017-Dec-09 14:29N 40°42' W 074°08'0 0.0
2017-Dec-09 13:59N 40°42' W 074°08'0 0.0
2017-Dec-09 13:29N 40°42' W 074°08'0 0.0
2017-Dec-09 12:59N 40°42' W 074°08'0 0.0
2017-Dec-09 12:30N 40°42' W 074°08'1 1.9
2017-Dec-09 11:59N 40°41' W 074°09'0 0.5
2017-Dec-09 11:25N 40°40' W 074°08'0 0.0
2017-Dec-09 10:58N 40°40' W 074°08'0 0.0
2017-Dec-09 10:25N 40°40' W 074°08'0 0.0
2017-Dec-09 09:58N 40°40' W 074°08'0 0.0
2017-Dec-09 09:28N 40°40' W 074°08'0 0.0
2017-Dec-09 08:58N 40°40' W 074°08'0 0.0
2017-Dec-09 08:30N 40°40' W 074°08'0 0.6
2017-Dec-09 08:00N 40°41' W 074°09'0 0.3
2017-Dec-09 07:30N 40°41' W 074°08'1 1.1
2017-Dec-09 07:00N 40°40' W 074°08'2 3.2
2017-Dec-09 06:30N 40°39' W 074°09'2 3.9
2017-Dec-09 06:00N 40°39' W 074°06'2 3.1
2017-Dec-09 05:30N 40°40' W 074°05'0 0.0
2017-Dec-09 04:59N 40°40' W 074°05'0 0.0
2017-Dec-09 04:29N 40°40' W 074°05'0 0.0
2017-Dec-09 03:59N 40°40' W 074°05'0 0.0
2017-Dec-09 03:29N 40°40' W 074°05'0 0.0
2017-Dec-09 02:59N 40°40' W 074°05'2 3.5
2017-Dec-09 02:31N 40°40' W 074°03'5 9.8
2017-Dec-09 02:01N 40°45' W 074°01'3 5.7
2017-Dec-09 01:29N 40°47' W 073°59'0 0.0
2017-Dec-09 00:59N 40°47' W 073°59'0 0.0
2017-Dec-09 00:26N 40°47' W 073°59'0 0.0
2017-Dec-08 23:59N 40°47' W 073°59'0 0.0
2017-Dec-08 23:29N 40°48' W 073°59'0 0.0
2017-Dec-08 22:56N 40°47' W 073°59'0 0.0
2017-Dec-08 22:23N 40°47' W 073°59'0 0.0
2017-Dec-08 21:56N 40°48' W 073°59'0 0.2
2017-Dec-08 21:29N 40°48' W 073°59'0 0.2
2017-Dec-08 20:56N 40°48' W 073°59'0 0.2
2017-Dec-08 20:29N 40°48' W 073°59'0 0.0
2017-Dec-08 19:59N 40°48' W 073°59'0 0.0
2017-Dec-08 19:29N 40°48' W 073°59'0 0.0
2017-Dec-08 18:59N 40°48' W 073°59'0 0.0
2017-Dec-08 18:29N 40°48' W 073°59'0 0.1
2017-Dec-08 18:01N 40°48' W 073°59'3 5.4
2017-Dec-08 17:31N 40°45' W 074°01'510.6
2017-Dec-08 17:00N 40°40' W 074°03'4 8.1
2017-Dec-08 16:31N 40°39' W 074°08'4 7.1
2017-Dec-08 16:00N 40°37' W 074°12'1 1.9
2017-Dec-08 15:22N 40°36' W 074°12'3 7.3
2017-Dec-08 15:00N 40°39' W 074°11'5 9.8
2017-Dec-08 14:30N 40°39' W 074°05'2 3.5
2017-Dec-08 14:01N 40°40' W 074°03'0 0.0
2017-Dec-08 13:29N 40°40' W 074°03'0 0.0
2017-Dec-08 12:59N 40°40' W 074°03'0 0.0
2017-Dec-08 12:29N 40°40' W 074°03'0 0.1
2017-Dec-08 12:00N 40°40' W 074°03'3 5.0
2017-Dec-08 11:30N 40°38' W 074°04'0 0.0
2017-Dec-08 11:00N 40°38' W 074°04'0 0.0
2017-Dec-08 10:30N 40°38' W 074°04'0 0.0
2017-Dec-08 10:00N 40°38' W 074°04'0 0.0
2017-Dec-08 09:30N 40°38' W 074°04'0 0.0
2017-Dec-08 09:00N 40°38' W 074°04'0 0.1
2017-Dec-08 08:30N 40°38' W 074°04'0 0.0
2017-Dec-08 08:00N 40°38' W 074°04'0 0.0
2017-Dec-08 07:30N 40°38' W 074°04'0 0.0
2017-Dec-08 07:00N 40°38' W 074°04'0 0.3
2017-Dec-08 06:30N 40°38' W 074°04'0 0.3
2017-Dec-08 06:00N 40°38' W 074°04'1 1.4
2017-Dec-08 05:30N 40°39' W 074°04'2 3.9
2017-Dec-08 05:00N 40°39' W 074°06'0 0.1
2017-Dec-08 04:30N 40°39' W 074°06'0 0.0
2017-Dec-08 04:00N 40°39' W 074°06'0 0.0
2017-Dec-08 03:30N 40°39' W 074°06'2 3.8
2017-Dec-08 03:00N 40°40' W 074°04'0 0.4
2017-Dec-08 02:28N 40°40' W 074°04'0 0.0
2017-Dec-08 01:58N 40°40' W 074°04'0 0.0
2017-Dec-08 01:28N 40°40' W 074°04'0 0.0
2017-Dec-08 00:58N 40°40' W 074°04'0 0.0
2017-Dec-08 00:28N 40°40' W 074°04'0 0.0
2017-Dec-07 23:58N 40°40' W 074°04'1 3.1
2017-Dec-07 23:30N 40°39' W 074°06'1 1.0
2017-Dec-07 23:01N 40°39' W 074°06'3 5.7
2017-Dec-07 22:31N 40°40' W 074°03'0 0.7
2017-Dec-07 22:01N 40°41' W 074°03'2 3.8
2017-Dec-07 21:30N 40°40' W 074°00'0 0.0
2017-Dec-07 21:00N 40°40' W 074°00'0 0.0
2017-Dec-07 20:27N 40°40' W 074°00'0 0.0
2017-Dec-07 20:00N 40°40' W 074°00'0 0.0
2017-Dec-07 19:30N 40°40' W 074°00'0 0.0
2017-Dec-07 19:00N 40°40' W 074°00'0 0.0
2017-Dec-07 18:30N 40°40' W 074°00'0 0.0
2017-Dec-07 18:00N 40°40' W 074°00'0 0.0
2017-Dec-07 17:30N 40°40' W 074°00'0 0.0
2017-Dec-07 17:00N 40°40' W 074°00'0 0.0
2017-Dec-07 16:30N 40°40' W 074°00'0 0.0
2017-Dec-07 16:00N 40°40' W 074°00'0 0.0
2017-Dec-07 15:30N 40°40' W 074°00'1 1.2
2017-Dec-07 15:01N 40°40' W 074°01'0 0.2
2017-Dec-07 14:30N 40°40' W 074°01'1 1.2
2017-Dec-07 13:58N 40°40' W 074°00'0 0.0
2017-Dec-07 13:28N 40°40' W 074°00'  

Dump ship's entire track history